Time;durP1;ratioP1;P1;durP2;ratioP2;P2;SDS_P1;SDS_P2;PMS_P1;PMS_P2;Temp;Humidity;BMP_temperature;BMP_pressure;BME280_temperature;BME280_humidity;BME280_pressure;Samples;Min_cycle;Max_cycle;Signal;HPM_P1;HPM_P2
2022/01/05 06:00:42;;;;;;;0.73;0.57;;;6.80;97.20;;;;;;1690505;29;20195;-84
2022/01/05 06:01:32;;;;;;;0.80;0.60;;;6.80;97.20;;;;;;1690442;29;20204;-84
2022/01/05 06:02:24;;;;;;;0.90;0.50;;;6.80;97.20;;;;;;1690606;29;20207;-83
2022/01/05 06:03:15;;;;;;;0.70;0.50;;;6.80;97.20;;;;;;1690218;29;20248;-83
2022/01/05 06:04:07;;;;;;;0.70;0.50;;;6.80;97.20;;;;;;1690163;29;20232;-83
2022/01/05 06:04:58;;;;;;;0.80;0.70;;;6.80;97.20;;;;;;1690488;29;20239;-83
2022/01/05 06:05:50;;;;;;;0.80;0.70;;;6.80;97.20;;;;;;1690271;29;20204;-83
2022/01/05 06:06:40;;;;;;;0.75;0.60;;;6.80;97.20;;;;;;1690421;29;20480;-84
2022/01/05 06:07:32;;;;;;;0.77;0.60;;;6.80;97.20;;;;;;1690307;29;20678;-83
2022/01/05 06:08:23;;;;;;;1.38;0.60;;;6.80;97.20;;;;;;1690099;29;20208;-83
2022/01/05 06:09:15;;;;;;;1.63;0.77;;;6.80;97.20;;;;;;1690344;29;20264;-83
2022/01/05 06:10:06;;;;;;;0.80;0.60;;;6.80;97.20;;;;;;1689941;29;20702;-83
2022/01/05 06:10:58;;;;;;;1.13;0.65;;;6.80;97.20;;;;;;1689662;29;20724;-84
2022/01/05 06:11:49;;;;;;;1.23;0.70;;;6.70;97.20;;;;;;1690091;29;20215;-83
2022/01/05 06:12:41;;;;;;;0.82;0.70;;;6.70;97.20;;;;;;1689994;29;20634;-83
2022/01/05 06:13:31;;;;;;;1.52;0.77;;;6.70;97.20;;;;;;1690070;29;20196;-83
2022/01/05 06:14:23;;;;;;;1.13;0.70;;;6.70;97.20;;;;;;1689798;29;20196;-83
2022/01/05 06:15:14;;;;;;;1.30;0.93;;;6.70;97.20;;;;;;1690131;29;20209;-83
2022/01/05 06:16:07;;;;;;;1.00;0.63;;;6.70;97.20;;;;;;1689494;29;20207;-83
2022/01/05 06:16:58;;;;;;;0.90;0.70;;;6.60;97.20;;;;;;1689878;29;20205;-83
2022/01/05 06:17:49;;;;;;;1.97;0.70;;;6.60;97.20;;;;;;1689939;29;20212;-83
2022/01/05 06:18:40;;;;;;;2.15;0.60;;;6.60;97.20;;;;;;1690073;29;20288;-83
2022/01/05 06:19:32;;;;;;;1.00;0.90;;;6.60;97.20;;;;;;1689630;29;20208;-82
2022/01/05 06:20:23;;;;;;;2.78;0.70;;;6.60;97.20;;;;;;1689531;29;20224;-82
2022/01/05 06:21:15;;;;;;;1.70;1.00;;;6.60;97.20;;;;;;1689612;29;20712;-82
2022/01/05 06:22:06;;;;;;;1.17;0.82;;;6.60;97.20;;;;;;1689123;29;20460;-82
2022/01/05 06:22:58;;;;;;;2.40;1.30;;;6.60;97.20;;;;;;1689259;29;20193;-82
2022/01/05 06:23:48;;;;;;;1.40;1.30;;;6.60;97.20;;;;;;1689218;29;20232;-83
2022/01/05 06:24:42;;;;;;;1.60;1.33;;;6.60;97.20;;;;;;1689085;29;20208;-82
2022/01/05 06:25:33;;;;;;;2.15;1.95;;;6.60;97.20;;;;;;1689900;29;20208;-83
2022/01/05 06:26:24;;;;;;;7.13;1.97;;;6.60;97.20;;;;;;1690280;29;20292;-83
2022/01/05 06:27:16;;;;;;;2.38;2.17;;;6.60;97.20;;;;;;1690171;29;20463;-83
2022/01/05 06:28:11;;;;;;;4.28;2.38;;;6.70;97.20;;;;;;1689584;29;20206;-83
2022/01/05 06:29:01;;;;;;;4.07;2.55;;;6.70;97.20;;;;;;1689892;29;20213;-83
2022/01/05 06:29:53;;;;;;;2.37;2.00;;;6.70;97.20;;;;;;1690059;29;20204;-83
2022/01/05 06:30:45;;;;;;;2.38;2.03;;;6.70;97.20;;;;;;1689792;29;20240;-83
2022/01/05 06:31:37;;;;;;;2.28;1.50;;;6.70;97.20;;;;;;1689864;29;20219;-83
2022/01/05 06:32:28;;;;;;;1.40;1.25;;;6.80;97.20;;;;;;1689588;29;20204;-83
2022/01/05 06:33:19;;;;;;;1.70;0.90;;;6.80;97.20;;;;;;1689600;29;20205;-83
2022/01/05 06:34:12;;;;;;;2.70;0.83;;;6.80;97.20;;;;;;1689766;29;20695;-84
2022/01/05 06:35:03;;;;;;;1.98;1.02;;;6.80;97.20;;;;;;1689974;29;20261;-83
2022/01/05 06:35:55;;;;;;;1.10;0.95;;;6.90;97.20;;;;;;1689850;29;20631;-83
2022/01/05 06:36:45;;;;;;;1.27;0.90;;;6.90;97.20;;;;;;1689720;29;20240;-84
2022/01/05 06:37:37;;;;;;;1.20;1.10;;;6.90;97.20;;;;;;1689496;29;20209;-83
2022/01/05 06:38:28;;;;;;;2.25;1.38;;;6.90;97.20;;;;;;1689728;29;20217;-84
2022/01/05 06:39:19;;;;;;;1.33;1.23;;;6.90;97.20;;;;;;1689810;29;20284;-84
2022/01/05 06:40:11;;;;;;;1.48;1.38;;;6.80;97.20;;;;;;1689643;29;20240;-83
2022/01/05 06:41:02;;;;;;;1.88;1.30;;;6.80;97.20;;;;;;1689727;29;20204;-83
2022/01/05 06:41:53;;;;;;;1.85;1.20;;;6.80;97.20;;;;;;1689762;29;20205;-84
2022/01/05 06:42:45;;;;;;;1.53;1.43;;;6.80;97.20;;;;;;1689930;29;20204;-83
2022/01/05 06:43:36;;;;;;;1.55;1.20;;;6.80;97.20;;;;;;1689748;29;20449;-84
2022/01/05 06:44:28;;;;;;;1.60;1.20;;;6.80;97.20;;;;;;1689899;29;20212;-83
2022/01/05 06:45:18;;;;;;;1.75;1.15;;;6.80;97.20;;;;;;1689906;29;20200;-83
2022/01/05 06:46:10;;;;;;;1.60;1.10;;;6.80;97.20;;;;;;1689647;29;20299;-82
2022/01/05 06:47:03;;;;;;;1.80;1.13;;;6.80;97.20;;;;;;1689949;29;20212;-83
2022/01/05 06:47:54;;;;;;;1.45;1.08;;;6.80;97.20;;;;;;1689449;29;20601;-83
2022/01/05 06:48:45;;;;;;;1.52;1.10;;;6.80;97.20;;;;;;1689377;29;20208;-83
2022/01/05 06:49:37;;;;;;;2.10;1.30;;;6.80;97.20;;;;;;1689382;29;20204;-83
2022/01/05 06:50:28;;;;;;;1.05;0.95;;;6.70;97.20;;;;;;1689914;29;20507;-83
2022/01/05 06:51:20;;;;;;;1.67;0.90;;;6.70;97.20;;;;;;1689736;29;20204;-83
2022/01/05 06:52:11;;;;;;;1.90;1.10;;;6.70;97.20;;;;;;1689616;29;20250;-83
2022/01/05 06:53:03;;;;;;;1.55;1.13;;;6.70;97.20;;;;;;1689872;29;20211;-83
2022/01/05 06:53:54;;;;;;;1.80;1.00;;;6.70;97.20;;;;;;1689340;29;20280;-83
2022/01/05 06:54:46;;;;;;;1.63;1.23;;;6.80;97.20;;;;;;1689410;29;20204;-83
2022/01/05 06:55:36;;;;;;;1.10;0.95;;;6.80;97.20;;;;;;1689516;29;20197;-83
2022/01/05 06:56:28;;;;;;;1.17;1.07;;;6.80;97.20;;;;;;1689420;29;20210;-83
2022/01/05 06:57:19;;;;;;;1.52;1.08;;;6.80;97.20;;;;;;1689499;29;20232;-83
2022/01/05 06:58:10;;;;;;;1.37;1.00;;;6.80;97.20;;;;;;1689335;29;20208;-83
2022/01/05 06:59:01;;;;;;;1.80;1.05;;;6.80;97.20;;;;;;1689943;29;20230;-83
2022/01/05 06:59:53;;;;;;;1.75;0.80;;;6.90;97.20;;;;;;1689708;29;20580;-83
2022/01/05 07:00:44;;;;;;;1.20;1.00;;;6.90;97.20;;;;;;1689320;29;20215;-83
2022/01/05 07:01:36;;;;;;;1.70;1.27;;;6.90;97.20;;;;;;1690127;29;20215;-83
2022/01/05 07:02:28;;;;;;;1.88;1.40;;;7.00;97.20;;;;;;1690894;29;20211;-83
2022/01/05 07:03:19;;;;;;;1.85;1.15;;;7.00;97.20;;;;;;1690657;29;20207;-83
2022/01/05 07:04:10;;;;;;;1.80;1.30;;;7.00;97.20;;;;;;1690587;29;20321;-83
2022/01/05 07:05:02;;;;;;;1.53;1.43;;;7.00;97.20;;;;;;1690286;29;20212;-84
2022/01/05 07:05:53;;;;;;;1.60;1.30;;;6.90;97.20;;;;;;1689821;29;20212;-84
2022/01/05 07:06:44;;;;;;;1.90;1.60;;;7.00;97.20;;;;;;1690539;29;20290;-83
2022/01/05 07:07:36;;;;;;;1.90;1.25;;;7.00;97.20;;;;;;1690671;29;20212;-83
2022/01/05 07:08:28;;;;;;;1.60;1.40;;;7.00;97.20;;;;;;1690827;29;20201;-83
2022/01/05 07:09:18;;;;;;;2.10;1.50;;;7.00;97.20;;;;;;1690848;29;20321;-83
2022/01/05 07:10:11;;;;;;;1.67;1.57;;;7.00;97.20;;;;;;1690632;29;20301;-83
2022/01/05 07:11:02;;;;;;;1.52;1.42;;;7.00;97.20;;;;;;1690781;29;20208;-83
2022/01/05 07:11:54;;;;;;;2.07;1.87;;;7.00;97.20;;;;;;1690903;29;20204;-83
2022/01/05 07:12:45;;;;;;;1.70;1.60;;;7.00;97.20;;;;;;1690827;29;20584;-83
2022/01/05 07:13:37;;;;;;;2.05;1.65;;;7.00;97.20;;;;;;1690535;29;20291;-83
2022/01/05 07:14:28;;;;;;;1.63;1.42;;;7.00;97.20;;;;;;1690819;29;20247;-83
2022/01/05 07:15:19;;;;;;;1.50;1.40;;;7.00;97.20;;;;;;1690808;29;20208;-84
2022/01/05 07:16:10;;;;;;;2.10;1.25;;;6.90;97.20;;;;;;1690597;29;20500;-83
2022/01/05 07:17:02;;;;;;;1.60;1.50;;;6.90;97.20;;;;;;1690483;29;20212;-83
2022/01/05 07:17:55;;;;;;;2.25;2.05;;;6.90;97.20;;;;;;1690479;29;20212;-83
2022/01/05 07:18:45;;;;;;;3.38;2.83;;;6.90;97.20;;;;;;1690640;29;20231;-83
2022/01/05 07:19:37;;;;;;;3.40;3.03;;;6.90;97.20;;;;;;1690768;29;20251;-83
2022/01/05 07:20:28;;;;;;;3.47;3.10;;;6.90;97.20;;;;;;1690751;29;20248;-83
2022/01/05 07:21:20;;;;;;;3.20;2.93;;;6.90;97.20;;;;;;1690684;29;20207;-83
2022/01/05 07:22:10;;;;;;;4.00;2.80;;;7.00;97.20;;;;;;1690222;29;20657;-83
2022/01/05 07:23:02;;;;;;;2.27;1.80;;;7.00;97.20;;;;;;1690786;29;20791;-83
2022/01/05 07:23:53;;;;;;;2.75;2.30;;;7.00;97.20;;;;;;1690332;29;20228;-83
2022/01/05 07:24:45;;;;;;;1.93;1.70;;;7.00;97.20;;;;;;1690491;29;20287;-83
2022/01/05 07:25:35;;;;;;;2.60;2.17;;;7.00;97.20;;;;;;1690745;29;20489;-83
2022/01/05 07:26:28;;;;;;;3.00;2.70;;;7.00;97.20;;;;;;1690738;29;20215;-83
2022/01/05 07:27:18;;;;;;;4.63;3.70;;;7.00;97.20;;;;;;1690587;29;20263;-83
2022/01/05 07:28:10;;;;;;;6.57;4.50;;;7.00;97.20;;;;;;1690242;29;20208;-84
2022/01/05 07:29:01;;;;;;;3.85;3.30;;;7.00;97.20;;;;;;1690590;29;20244;-83
2022/01/05 07:29:53;;;;;;;3.80;2.93;;;7.00;97.20;;;;;;1690603;29;20500;-83
2022/01/05 07:30:43;;;;;;;4.47;2.92;;;7.00;97.20;;;;;;1690534;29;20231;-83
2022/01/05 07:31:35;;;;;;;2.93;2.03;;;6.90;97.20;;;;;;1690515;29;20208;-83
2022/01/05 07:32:28;;;;;;;2.20;2.00;;;6.90;97.20;;;;;;1690280;29;20219;-83
2022/01/05 07:33:21;;;;;;;1.88;1.30;;;6.90;97.20;;;;;;1690472;29;20211;-83
2022/01/05 07:34:12;;;;;;;1.20;1.00;;;6.80;97.20;;;;;;1690617;29;20209;-83
2022/01/05 07:35:05;;;;;;;2.85;1.20;;;6.70;97.20;;;;;;1690567;29;20616;-83
2022/01/05 07:35:56;;;;;;;1.77;1.45;;;6.70;97.20;;;;;;1690617;29;20238;-83
2022/01/05 07:36:47;;;;;;;1.80;1.40;;;6.70;97.20;;;;;;1690594;29;20208;-83
2022/01/05 07:37:39;;;;;;;1.92;1.27;;;6.70;97.20;;;;;;1690353;29;20445;-83
2022/01/05 07:38:30;;;;;;;1.65;1.10;;;6.60;97.20;;;;;;1689860;29;20252;-83
2022/01/05 07:39:21;;;;;;;1.10;1.00;;;6.60;97.20;;;;;;1690409;29;20243;-83
2022/01/05 07:40:14;;;;;;;1.57;1.20;;;6.60;97.20;;;;;;1690894;29;20204;-84
2022/01/05 07:41:04;;;;;;;1.27;1.10;;;6.50;97.20;;;;;;1691359;29;20239;-83
2022/01/05 07:41:56;;;;;;;2.37;1.27;;;6.50;97.20;;;;;;1691984;29;20207;-83
2022/01/05 07:42:47;;;;;;;2.22;1.00;;;6.40;97.20;;;;;;1691369;29;20257;-83
2022/01/05 07:43:38;;;;;;;2.00;0.93;;;6.40;97.20;;;;;;1690100;29;20232;-83
2022/01/05 07:44:29;;;;;;;2.45;1.42;;;6.30;97.20;;;;;;1690728;29;20280;-84
2022/01/05 07:45:21;;;;;;;1.60;1.50;;;6.30;97.20;;;;;;1690639;29;20205;-84
2022/01/05 07:46:12;;;;;;;1.20;1.00;;;6.20;97.20;;;;;;1690622;29;20231;-83
2022/01/05 07:47:05;;;;;;;1.50;1.40;;;6.30;97.20;;;;;;1690427;29;20208;-83
2022/01/05 07:47:55;;;;;;;2.33;1.42;;;6.30;97.20;;;;;;1690422;29;20208;-84
2022/01/05 07:48:48;;;;;;;2.07;1.30;;;6.30;97.20;;;;;;1690521;29;20205;-83
2022/01/05 07:49:39;;;;;;;3.08;1.08;;;6.40;97.20;;;;;;1690866;29;20209;-84
2022/01/05 07:50:31;;;;;;;2.07;1.40;;;6.40;97.20;;;;;;1690401;29;20300;-83
2022/01/05 07:51:22;;;;;;;1.40;1.30;;;6.40;97.20;;;;;;1690511;29;20223;-83
2022/01/05 07:52:14;;;;;;;2.70;1.38;;;6.40;97.20;;;;;;1690194;29;20208;-82
2022/01/05 07:53:05;;;;;;;2.00;1.85;;;6.40;97.20;;;;;;1689873;29;20208;-82
2022/01/05 07:53:56;;;;;;;2.40;1.80;;;6.30;97.20;;;;;;1689524;29;20248;-83
2022/01/05 07:54:47;;;;;;;3.83;1.73;;;6.30;97.20;;;;;;1690007;29;20473;-83
2022/01/05 07:55:39;;;;;;;3.43;1.57;;;6.20;97.20;;;;;;1690258;29;20224;-83
2022/01/05 07:56:30;;;;;;;2.92;1.30;;;6.10;97.20;;;;;;1690421;29;20208;-83
2022/01/05 07:57:21;;;;;;;2.73;1.57;;;6.10;97.20;;;;;;1690498;29;20288;-83
2022/01/05 07:58:12;;;;;;;3.00;1.58;;;6.00;97.20;;;;;;1690132;29;20214;-83
2022/01/05 07:59:04;;;;;;;3.53;2.30;;;6.00;97.20;;;;;;1690562;29;20200;-83
2022/01/05 07:59:54;;;;;;;2.50;1.80;;;6.00;97.20;;;;;;1690313;29;20209;-82
2022/01/05 08:00:46;;;;;;;2.53;1.80;;;6.00;97.20;;;;;;1690387;29;20205;-83
2022/01/05 08:01:37;;;;;;;3.28;2.67;;;6.00;97.20;;;;;;1690312;29;20239;-84
2022/01/05 08:02:29;;;;;;;3.17;2.87;;;6.00;97.20;;;;;;1690377;29;20215;-83
2022/01/05 08:03:19;;;;;;;3.92;2.40;;;6.00;97.20;;;;;;1690130;29;20443;-83
2022/01/05 08:04:14;;;;;;;3.17;2.30;;;6.10;97.20;;;;;;1690159;29;20580;-83
2022/01/05 08:05:07;;;;;;;4.68;2.65;;;6.10;97.20;;;;;;1690380;29;20212;-83
2022/01/05 08:05:58;;;;;;;3.35;2.65;;;6.10;97.20;;;;;;1690413;29;20283;-84
2022/01/05 08:06:49;;;;;;;3.88;2.42;;;6.10;97.20;;;;;;1690404;29;20236;-83
2022/01/05 08:07:41;;;;;;;4.47;2.33;;;6.10;97.20;;;;;;1689971;29;20211;-84
2022/01/05 08:08:32;;;;;;;2.88;2.10;;;6.20;97.20;;;;;;1690315;29;20212;-83
2022/01/05 08:09:23;;;;;;;1.90;1.80;;;6.20;97.20;;;;;;1690210;29;20691;-83
2022/01/05 08:10:14;;;;;;;4.05;2.35;;;6.10;97.20;;;;;;1690515;29;20460;-84
2022/01/05 08:11:06;;;;;;;3.00;1.80;;;6.20;97.20;;;;;;1690382;29;20203;-83
2022/01/05 08:11:57;;;;;;;6.53;4.00;;;6.20;97.20;;;;;;1689997;29;20242;-83
2022/01/05 08:12:49;;;;;;;7.25;4.93;;;6.20;97.20;;;;;;1690114;29;20208;-83
2022/01/05 08:13:39;;;;;;;9.73;4.45;;;6.20;97.20;;;;;;1690309;29;20631;-83
2022/01/05 08:14:31;;;;;;;5.60;4.03;;;6.20;97.20;;;;;;1690296;29;20566;-83
2022/01/05 08:15:22;;;;;;;5.63;3.25;;;6.30;97.20;;;;;;1690437;29;20235;-83
2022/01/05 08:16:14;;;;;;;4.73;3.20;;;6.20;97.20;;;;;;1690404;29;20207;-83
2022/01/05 08:17:06;;;;;;;3.25;2.70;;;6.20;97.20;;;;;;1690353;29;20235;-83
2022/01/05 08:17:56;;;;;;;3.47;2.80;;;6.20;97.20;;;;;;1690360;29;20248;-83
2022/01/05 08:18:49;;;;;;;4.77;2.70;;;6.30;97.20;;;;;;1690953;29;20205;-83
2022/01/05 08:19:42;;;;;;;5.35;2.70;;;6.30;97.20;;;;;;1690652;29;20303;-83
2022/01/05 08:20:33;;;;;;;2.75;2.35;;;6.30;97.20;;;;;;1690394;29;20213;-82
2022/01/05 08:21:25;;;;;;;3.80;2.77;;;6.30;97.20;;;;;;1690265;29;20240;-83
2022/01/05 08:22:15;;;;;;;4.50;2.28;;;6.20;97.20;;;;;;1690359;29;20212;-83
2022/01/05 08:23:07;;;;;;;6.53;2.30;;;6.20;97.20;;;;;;1690150;29;20707;-83
2022/01/05 08:23:58;;;;;;;5.95;3.10;;;6.20;97.20;;;;;;1690175;29;20483;-82
2022/01/05 08:24:49;;;;;;;2.07;1.80;;;6.10;97.20;;;;;;1690271;29;20700;-82
2022/01/05 08:25:40;;;;;;;3.22;2.20;;;6.10;97.20;;;;;;1690324;29;20212;-83
2022/01/05 08:26:32;;;;;;;3.73;2.10;;;6.10;97.20;;;;;;1690173;29;20204;-83
2022/01/05 08:27:23;;;;;;;2.40;1.90;;;6.00;97.20;;;;;;1690134;29;20240;-83
2022/01/05 08:28:15;;;;;;;4.00;2.00;;;6.00;97.20;;;;;;1689521;29;20215;-83
2022/01/05 08:29:07;;;;;;;9.02;2.90;;;6.00;97.20;;;;;;1690037;29;20204;-82
2022/01/05 08:30:03;;;;;;;4.32;2.65;;;6.00;97.20;;;;;;1690172;29;20251;-83
2022/01/05 08:30:55;;;;;;;3.85;2.80;;;6.00;97.20;;;;;;1690407;29;20212;-82
2022/01/05 08:31:46;;;;;;;4.05;2.55;;;6.00;97.20;;;;;;1690015;29;20209;-83
2022/01/05 08:32:38;;;;;;;2.53;2.30;;;6.00;97.20;;;;;;1690178;29;20214;-83
2022/01/05 08:33:28;;;;;;;3.17;2.15;;;6.00;97.20;;;;;;1689841;29;20255;-83
2022/01/05 08:34:20;;;;;;;5.63;2.20;;;6.00;97.20;;;;;;1690082;29;20227;-83
2022/01/05 08:35:13;;;;;;;2.92;2.28;;;6.00;97.20;;;;;;1690359;29;20213;-83
2022/01/05 08:36:05;;;;;;;3.85;1.90;;;6.00;97.20;;;;;;1690232;29;20209;-83
2022/01/05 08:36:56;;;;;;;3.55;1.80;;;6.00;97.20;;;;;;1689789;29;20243;-84
2022/01/05 08:37:48;;;;;;;3.47;2.00;;;6.00;97.20;;;;;;1689048;29;20205;-84
2022/01/05 08:38:40;;;;;;;1.98;1.83;;;5.90;97.20;;;;;;1689230;29;20208;-82
2022/01/05 08:39:31;;;;;;;2.92;1.80;;;5.90;97.20;;;;;;1689791;29;20208;-84
2022/01/05 08:40:25;;;;;;;2.93;1.90;;;5.90;97.20;;;;;;1692668;29;20204;-84
2022/01/05 08:41:15;;;;;;;4.32;2.47;;;5.90;97.20;;;;;;1691975;29;20220;-83
2022/01/05 08:42:07;;;;;;;1.90;1.60;;;5.90;97.20;;;;;;1690192;29;20295;-84
2022/01/05 08:42:59;;;;;;;2.85;1.75;;;6.00;97.20;;;;;;1690088;29;20213;-83
2022/01/05 08:43:50;;;;;;;2.47;2.05;;;5.90;97.20;;;;;;1689664;29;20246;-84
2022/01/05 08:44:41;;;;;;;2.78;1.70;;;6.00;97.20;;;;;;1689368;29;20264;-84
2022/01/05 08:45:33;;;;;;;2.50;1.93;;;5.90;97.20;;;;;;1690356;29;20200;-84
2022/01/05 08:46:24;;;;;;;4.50;2.10;;;5.80;97.20;;;;;;1689850;29;20207;-84
2022/01/05 08:47:15;;;;;;;2.33;1.50;;;5.80;97.20;;;;;;1690192;29;20291;-85
2022/01/05 08:48:06;;;;;;;3.75;1.67;;;5.70;97.20;;;;;;1690153;29;20223;-84
2022/01/05 08:48:58;;;;;;;4.47;2.00;;;5.60;97.20;;;;;;1690263;29;20291;-84
2022/01/05 08:49:49;;;;;;;4.57;2.40;;;5.70;97.20;;;;;;1684950;29;20492;-82
2022/01/05 08:50:43;;;;;;;4.70;2.43;;;5.60;97.20;;;;;;1688639;29;20200;-83
2022/01/05 08:51:36;;;;;;;4.35;1.83;;;5.70;97.20;;;;;;1690075;29;20965;-83
2022/01/05 08:52:28;;;;;;;3.45;2.00;;;5.70;97.20;;;;;;1689504;29;20219;-83
2022/01/05 08:53:21;;;;;;;2.67;1.85;;;5.70;97.20;;;;;;1689864;29;20243;-83
2022/01/05 08:54:11;;;;;;;4.90;2.22;;;5.70;97.20;;;;;;1689882;29;20216;-83
2022/01/05 08:55:04;;;;;;;2.20;1.80;;;5.70;97.20;;;;;;1689994;29;20197;-83
2022/01/05 08:55:55;;;;;;;3.05;2.00;;;5.70;97.20;;;;;;1691670;29;20205;-83
2022/01/05 08:56:47;;;;;;;2.88;2.05;;;5.70;97.20;;;;;;1696440;29;20207;-83
2022/01/05 08:57:40;;;;;;;3.25;1.90;;;5.70;97.20;;;;;;1695752;29;20211;-83
2022/01/05 08:58:32;;;;;;;3.00;2.10;;;5.70;97.20;;;;;;1696293;29;20204;-83
2022/01/05 08:59:23;;;;;;;3.05;1.63;;;5.80;97.20;;;;;;1696387;29;20212;-83
2022/01/05 09:00:15;;;;;;;3.63;1.90;;;5.80;97.20;;;;;;1694067;29;20202;-83
2022/01/05 09:01:10;;;;;;;3.65;2.38;;;5.80;97.20;;;;;;1689715;29;20239;-83
2022/01/05 09:02:01;;;;;;;2.15;1.70;;;5.80;97.20;;;;;;1689955;29;20208;-83
2022/01/05 09:02:53;;;;;;;3.93;1.90;;;5.80;97.20;;;;;;1690002;29;20204;-82
2022/01/05 09:03:45;;;;;;;4.50;2.10;;;5.80;97.20;;;;;;1689948;29;20519;-83
2022/01/05 09:04:36;;;;;;;3.28;1.98;;;5.80;97.20;;;;;;1690022;29;20239;-83
2022/01/05 09:05:27;;;;;;;2.83;1.70;;;5.70;97.20;;;;;;1690153;29;20220;-83
2022/01/05 09:06:22;;;;;;;4.32;1.90;;;5.80;97.20;;;;;;1689819;29;20208;-83
2022/01/05 09:07:13;;;;;;;7.35;2.30;;;5.70;97.20;;;;;;1690039;29;20215;-83
2022/01/05 09:08:05;;;;;;;3.43;2.13;;;5.70;97.20;;;;;;1691497;29;20209;-83
2022/01/05 09:08:55;;;;;;;3.40;2.00;;;5.70;97.20;;;;;;1696807;29;20231;-83
2022/01/05 09:09:47;;;;;;;2.43;1.83;;;5.70;97.20;;;;;;1696710;29;20204;-83
2022/01/05 09:10:38;;;;;;;5.65;2.10;;;5.70;97.20;;;;;;1696819;29;20250;-83
2022/01/05 09:11:30;;;;;;;3.75;2.50;;;5.70;97.20;;;;;;1696927;29;20199;-83
2022/01/05 09:12:21;;;;;;;4.22;2.10;;;5.70;97.20;;;;;;1696853;29;20231;-83
2022/01/05 09:13:13;;;;;;;3.17;2.00;;;5.60;97.20;;;;;;1696683;29;20203;-83
2022/01/05 09:14:04;;;;;;;2.40;2.03;;;5.60;97.20;;;;;;1696421;29;20491;-83
2022/01/05 09:14:56;;;;;;;4.70;2.10;;;5.60;97.20;;;;;;1690978;29;20199;-83
2022/01/05 09:15:48;;;;;;;2.20;1.90;;;5.60;97.20;;;;;;1690364;29;20473;-83
2022/01/05 09:16:38;;;;;;;2.58;1.92;;;5.60;97.20;;;;;;1690209;29;20240;-83
2022/01/05 09:17:31;;;;;;;3.30;2.03;;;5.60;97.20;;;;;;1689958;29;20227;-83
2022/01/05 09:18:24;;;;;;;4.30;2.60;;;5.60;97.20;;;;;;1689257;29;20228;-83
2022/01/05 09:19:14;;;;;;;3.72;2.08;;;5.60;97.20;;;;;;1690058;29;20295;-83
2022/01/05 09:20:07;;;;;;;6.30;3.80;;;5.60;97.20;;;;;;1690315;29;20664;-83
2022/01/05 09:20:58;;;;;;;1.75;1.45;;;5.60;97.20;;;;;;1690070;29;20216;-83
2022/01/05 09:21:51;;;;;;;3.87;1.93;;;5.60;97.20;;;;;;1689993;29;20212;-83
2022/01/05 09:22:42;;;;;;;4.13;2.20;;;5.60;97.20;;;;;;1689872;29;20216;-83
2022/01/05 09:23:34;;;;;;;5.10;1.80;;;5.60;97.20;;;;;;1690083;29;20204;-83
2022/01/05 09:24:25;;;;;;;4.00;2.10;;;5.60;97.20;;;;;;1689509;29;20201;-83
2022/01/05 09:25:18;;;;;;;6.10;2.53;;;5.60;97.20;;;;;;1689995;29;20741;-83
2022/01/05 09:26:10;;;;;;;4.05;2.00;;;5.50;97.20;;;;;;1689965;29;20204;-82
2022/01/05 09:27:03;;;;;;;3.92;1.88;;;5.60;97.20;;;;;;1689954;29;20208;-83
2022/01/05 09:27:55;;;;;;;3.70;2.00;;;5.60;97.20;;;;;;1689482;29;20617;-82
2022/01/05 09:28:45;;;;;;;3.80;1.95;;;5.60;97.20;;;;;;1689748;29;20208;-83
2022/01/05 09:29:39;;;;;;;3.67;2.40;;;5.60;97.20;;;;;;1690041;29;20268;-83
2022/01/05 09:30:30;;;;;;;4.22;1.98;;;5.70;97.20;;;;;;1689814;29;20208;-83
2022/01/05 09:31:21;;;;;;;5.20;2.13;;;5.80;97.20;;;;;;1689278;29;20220;-83
2022/01/05 09:32:12;;;;;;;5.03;1.90;;;5.80;97.20;;;;;;1689610;29;20487;-83
2022/01/05 09:33:04;;;;;;;5.37;2.20;;;5.90;97.20;;;;;;1689898;29;20218;-82
2022/01/05 09:33:55;;;;;;;5.65;2.00;;;5.90;97.20;;;;;;1690007;29;21030;-83
2022/01/05 09:34:46;;;;;;;2.70;1.87;;;6.00;97.20;;;;;;1689680;29;21043;-82
2022/01/05 09:35:38;;;;;;;2.60;1.92;;;6.10;97.20;;;;;;1689784;29;20213;-82
2022/01/05 09:36:34;;;;;;;3.35;1.90;;;6.20;97.20;;;;;;1690024;29;20213;-83
2022/01/05 09:37:31;;;;;;;4.53;2.03;;;6.40;97.20;;;;;;1689749;29;20200;-82
2022/01/05 09:38:34;;;;;;;3.33;2.05;;;6.50;97.20;;;;;;1689724;29;20209;-82
2022/01/05 09:41:56;;;;;;;3.88;2.65;;;6.80;97.20;;;;;;1689763;29;20208;-83
2022/01/05 09:42:48;;;;;;;3.90;1.92;;;6.90;97.20;;;;;;1689794;29;20232;-82
2022/01/05 09:43:51;;;;;;;4.05;1.80;;;7.00;97.20;;;;;;1689557;29;20232;-82
2022/01/05 09:44:45;;;;;;;3.35;1.92;;;7.00;97.20;;;;;;1693085;29;20207;-82
2022/01/05 09:45:38;;;;;;;3.83;1.85;;;7.00;97.20;;;;;;1696430;29;20204;-83
2022/01/05 09:46:44;;;;;;;2.60;1.67;;;6.90;97.20;;;;;;1690587;29;20201;-82
2022/01/05 09:48:10;;;;;;;5.38;2.03;;;6.90;97.20;;;;;;1689477;29;20263;-83
2022/01/05 09:49:12;;;;;;;4.07;1.80;;;6.90;97.20;;;;;;1689366;29;20523;-82
2022/01/05 09:50:07;;;;;;;2.20;1.63;;;7.00;97.20;;;;;;1689260;29;20217;-82
2022/01/05 09:51:02;;;;;;;3.63;1.70;;;7.10;97.20;;;;;;1689031;29;20239;-83
2022/01/05 09:51:56;;;;;;;4.65;1.95;;;7.10;97.20;;;;;;1688845;29;20212;-82
2022/01/05 09:52:49;;;;;;;3.33;1.73;;;7.20;97.20;;;;;;1688728;29;20217;-82
2022/01/05 09:53:41;;;;;;;3.70;1.98;;;7.20;97.20;;;;;;1689083;29;20228;-82
2022/01/05 09:54:33;;;;;;;3.95;2.63;;;7.30;97.20;;;;;;1689440;29;20219;-82
2022/01/05 09:55:25;;;;;;;2.88;1.73;;;7.30;97.20;;;;;;1689307;29;20205;-81
2022/01/05 09:56:16;;;;;;;3.90;1.83;;;7.40;97.20;;;;;;1689175;29;20215;-82
2022/01/05 09:57:09;;;;;;;3.73;1.83;;;7.40;97.20;;;;;;1689383;29;20218;-81
2022/01/05 09:58:00;;;;;;;3.58;1.90;;;7.50;97.20;;;;;;1689329;29;20205;-84
2022/01/05 09:58:52;;;;;;;3.63;1.70;;;7.60;97.20;;;;;;1689258;29;20216;-84
2022/01/05 09:59:43;;;;;;;4.55;1.40;;;7.70;97.20;;;;;;1689553;29;20256;-83
2022/01/05 10:00:35;;;;;;;8.52;2.10;;;7.70;97.20;;;;;;1689709;29;20270;-83
2022/01/05 10:01:28;;;;;;;2.50;1.55;;;7.70;97.20;;;;;;1689772;29;20205;-83
2022/01/05 10:02:20;;;;;;;5.97;2.10;;;7.70;97.20;;;;;;1689658;29;20213;-83
2022/01/05 10:03:14;;;;;;;6.97;2.28;;;7.70;97.20;;;;;;1688985;29;20201;-84
2022/01/05 10:04:06;;;;;;;3.63;1.95;;;7.80;97.20;;;;;;1689415;29;20607;-84
2022/01/05 10:04:58;;;;;;;2.85;1.60;;;7.90;97.20;;;;;;1689779;29;20204;-84
2022/01/05 10:05:50;;;;;;;3.58;1.80;;;8.00;97.20;;;;;;1689705;29;20213;-84
2022/01/05 10:06:42;;;;;;;3.50;1.75;;;8.20;97.20;;;;;;1690313;29;20252;-82
2022/01/05 10:07:34;;;;;;;5.25;1.88;;;8.30;97.20;;;;;;1690043;29;20212;-84
2022/01/05 10:08:28;;;;;;;4.75;1.60;;;8.50;97.20;;;;;;1689956;29;20215;-85
2022/01/05 10:09:21;;;;;;;4.13;1.70;;;8.60;97.20;;;;;;1690015;29;20211;-84
2022/01/05 10:10:12;;;;;;;3.88;1.40;;;8.70;97.20;;;;;;1689766;29;20215;-85
2022/01/05 10:11:04;;;;;;;3.13;1.83;;;8.70;97.20;;;;;;1689609;29;20205;-85
2022/01/05 10:11:54;;;;;;;2.63;1.48;;;8.70;97.20;;;;;;1689855;29;20247;-84
2022/01/05 10:12:46;;;;;;;3.47;1.70;;;8.80;97.20;;;;;;1689771;29;20200;-85
2022/01/05 10:13:37;;;;;;;3.92;1.85;;;8.90;97.20;;;;;;1689392;29;20223;-84
2022/01/05 10:14:29;;;;;;;5.13;1.97;;;9.00;97.20;;;;;;1689916;29;20203;-83
2022/01/05 10:15:21;;;;;;;7.60;3.08;;;9.00;97.20;;;;;;1689539;29;20471;-84
2022/01/05 10:16:12;;;;;;;3.63;1.75;;;9.10;97.20;;;;;;1690027;29;20201;-84
2022/01/05 10:17:06;;;;;;;3.42;2.10;;;9.00;97.20;;;;;;1690039;29;20248;-84
2022/01/05 10:18:10;;;;;;;5.75;1.98;;;9.00;97.20;;;;;;1689393;29;20219;-82
2022/01/05 10:19:02;;;;;;;3.47;1.80;;;8.90;97.20;;;;;;1688873;29;20583;-82
2022/01/05 10:19:58;;;;;;;4.40;1.92;;;8.90;97.20;;;;;;1688308;29;20204;-82
2022/01/05 10:21:01;;;;;;;6.15;2.25;;;8.90;97.20;;;;;;1688902;29;20208;-84
2022/01/05 10:21:52;;;;;;;3.38;1.77;;;8.80;97.20;;;;;;1689594;29;20931;-84
2022/01/05 10:22:45;;;;;;;6.75;2.05;;;8.80;97.20;;;;;;1690084;29;20707;-84
2022/01/05 10:23:41;;;;;;;4.28;1.90;;;8.70;97.20;;;;;;1689563;29;20208;-83
2022/01/05 10:24:43;;;;;;;6.20;2.00;;;8.60;97.20;;;;;;1689420;29;20212;-82
2022/01/05 10:25:34;;;;;;;4.57;1.83;;;8.50;97.20;;;;;;1689369;29;20236;-81
2022/01/05 10:26:31;;;;;;;5.30;2.00;;;8.40;97.20;;;;;;1689044;29;20299;-81
2022/01/05 10:27:23;;;;;;;5.72;2.33;;;8.40;97.20;;;;;;1689292;29;20449;-83
2022/01/05 10:28:26;;;;;;;5.88;2.25;;;8.20;97.20;;;;;;1689321;29;20215;-82
2022/01/05 10:29:20;;;;;;;5.22;2.30;;;8.20;97.20;;;;;;1689105;29;20570;-83
2022/01/05 10:30:14;;;;;;;6.40;2.10;;;8.10;97.20;;;;;;1689167;29;20206;-82
2022/01/05 10:31:13;;;;;;;6.05;3.65;;;8.00;97.20;;;;;;1689063;29;20212;-81
2022/01/05 10:32:08;;;;;;;4.55;2.13;;;7.90;97.20;;;;;;1688948;29;20236;-80
2022/01/05 10:33:00;;;;;;;4.40;2.42;;;7.80;97.20;;;;;;1688599;29;20209;-80
2022/01/05 10:33:51;;;;;;;4.13;2.05;;;7.70;97.20;;;;;;1688654;29;20232;-80
2022/01/05 10:34:43;;;;;;;4.57;2.13;;;7.70;97.20;;;;;;1688804;29;20676;-81
2022/01/05 10:35:35;;;;;;;5.88;1.90;;;7.60;97.20;;;;;;1688624;29;20632;-82
2022/01/05 10:36:44;;;;;;;5.15;1.90;;;7.60;97.20;;;;;;1688412;29;20205;-81
2022/01/05 10:37:37;;;;;;;5.75;2.35;;;7.60;97.20;;;;;;1688317;29;20236;-82
2022/01/05 10:38:29;;;;;;;5.22;2.10;;;7.60;97.20;;;;;;1688583;29;20699;-81